createdAt,value
2023-05-05T00:02:15.602Z,17.55
2023-05-05T00:04:42.205Z,17.57
2023-05-05T00:07:08.819Z,17.57
2023-05-05T00:09:35.244Z,17.58
2023-05-05T00:12:01.679Z,17.59
2023-05-05T00:14:28.104Z,17.58
2023-05-05T00:16:54.530Z,17.57
2023-05-05T00:19:21.056Z,17.56
2023-05-05T00:21:47.490Z,17.54
2023-05-05T00:24:13.921Z,17.53
2023-05-05T00:26:40.326Z,17.51
2023-05-05T00:29:06.738Z,17.47
2023-05-05T00:31:33.376Z,17.47
2023-05-05T00:33:59.852Z,17.46
2023-05-05T00:36:26.213Z,17.40
2023-05-05T00:38:52.681Z,17.31
2023-05-05T00:41:19.166Z,17.26
2023-05-05T00:43:45.609Z,17.24
2023-05-05T00:46:24.357Z,17.24
2023-05-05T00:48:51.588Z,17.21
2023-05-05T00:51:20.525Z,17.22
2023-05-05T00:53:48.235Z,17.19
2023-05-05T00:56:16.713Z,17.19
2023-05-05T00:58:44.160Z,17.16
2023-05-05T01:01:11.567Z,17.16
2023-05-05T01:03:39.394Z,17.18
2023-05-05T01:06:21.124Z,17.18
2023-05-05T01:09:20.160Z,17.18
2023-05-05T01:12:31.809Z,17.22
2023-05-05T01:15:31.575Z,17.26
2023-05-05T01:18:38.916Z,17.25
2023-05-05T01:21:45.752Z,17.27
2023-05-05T01:24:37.172Z,17.31
2023-05-05T01:27:13.368Z,17.32
2023-05-05T01:29:49.243Z,17.32
2023-05-05T01:32:21.892Z,17.34
2023-05-05T01:34:56.266Z,17.33
2023-05-05T01:37:27.736Z,17.35
2023-05-05T01:39:59.173Z,17.38
2023-05-05T01:42:28.183Z,17.38
2023-05-05T01:44:56.793Z,17.38
2023-05-05T01:47:23.935Z,17.37
2023-05-05T01:49:52.735Z,17.36
2023-05-05T01:52:19.642Z,17.34
2023-05-05T01:54:49.189Z,17.30
2023-05-05T01:57:16.850Z,17.28
2023-05-05T01:59:43.451Z,17.27
2023-05-05T02:02:12.050Z,17.28
2023-05-05T02:04:43.487Z,17.29
2023-05-05T02:07:12.560Z,17.29
2023-05-05T02:09:40.626Z,17.27
2023-05-05T02:12:08.252Z,17.24
2023-05-05T02:14:35.836Z,17.22
2023-05-05T02:17:03.938Z,17.21
2023-05-05T02:19:34.351Z,17.19
2023-05-05T02:22:00.877Z,17.19
2023-05-05T02:24:27.350Z,17.13
2023-05-05T02:26:56.341Z,17.08
2023-05-05T02:29:44.582Z,17.04
2023-05-05T02:32:16.803Z,17.02
2023-05-05T02:34:46.309Z,16.99
2023-05-05T02:37:19.763Z,16.96
2023-05-05T02:39:58.526Z,16.93
2023-05-05T02:42:32.086Z,16.89
2023-05-05T02:45:15.385Z,16.89
2023-05-05T02:47:45.183Z,16.87
2023-05-05T02:50:11.928Z,16.85
2023-05-05T02:52:45.763Z,16.84
2023-05-05T02:55:13.823Z,16.80
2023-05-05T02:57:48.607Z,16.77
2023-05-05T03:00:36.186Z,16.74
2023-05-05T03:03:24.657Z,16.68
2023-05-05T03:06:12.847Z,16.67
2023-05-05T03:08:49.683Z,16.63
2023-05-05T03:11:25.607Z,16.58
2023-05-05T03:14:05.397Z,16.51
2023-05-05T03:16:35.019Z,16.49
2023-05-05T03:19:03.524Z,16.42
2023-05-05T03:21:32.429Z,16.38
2023-05-05T03:23:59.257Z,16.37
2023-05-05T03:26:25.680Z,16.38
2023-05-05T03:28:52.075Z,16.37
2023-05-05T03:31:24.165Z,16.34
2023-05-05T03:33:54.733Z,16.26
2023-05-05T03:36:25.083Z,16.24
2023-05-05T03:38:52.948Z,16.25
2023-05-05T03:41:22.578Z,16.24
2023-05-05T03:43:50.759Z,16.22
2023-05-05T03:46:17.702Z,16.18
2023-05-05T03:48:44.217Z,16.18
2023-05-05T03:51:12.675Z,16.16
2023-05-05T03:53:39.670Z,16.13
2023-05-05T03:56:07.257Z,16.10
2023-05-05T03:58:33.707Z,16.10
2023-05-05T04:01:00.464Z,16.09
2023-05-05T04:03:27.139Z,16.06
2023-05-05T04:05:53.784Z,16.06
2023-05-05T04:08:21.518Z,16.07
2023-05-05T04:10:48.138Z,16.05
2023-05-05T04:13:15.348Z,16.06
2023-05-05T04:15:46.470Z,16.08
2023-05-05T04:18:14.209Z,16.07
2023-05-05T04:20:40.955Z,16.08
2023-05-05T04:23:08.621Z,16.06
2023-05-05T04:25:35.708Z,16.04
2023-05-05T04:28:02.785Z,16.03
2023-05-05T04:30:30.764Z,16.01
2023-05-05T04:32:57.244Z,16.01
2023-05-05T04:35:24.210Z,15.97
2023-05-05T04:37:53.391Z,15.96
2023-05-05T04:40:20.273Z,15.97
2023-05-05T04:42:47.191Z,15.96
2023-05-05T04:45:13.839Z,15.95
2023-05-05T04:47:41.109Z,15.95
2023-05-05T04:50:08.748Z,15.96
2023-05-05T04:52:35.575Z,15.97
2023-05-05T04:55:02.514Z,15.96
2023-05-05T04:57:29.653Z,15.96
2023-05-05T04:59:57.216Z,16.06
2023-05-05T05:02:23.720Z,16.14
2023-05-05T05:04:50.161Z,16.19
2023-05-05T05:07:16.642Z,16.25
2023-05-05T05:09:43.160Z,16.30
2023-05-05T05:12:09.677Z,16.41
2023-05-05T05:14:37.788Z,16.49
2023-05-05T05:17:04.928Z,16.58
2023-05-05T05:19:32.762Z,16.69
2023-05-05T05:21:59.357Z,16.81
2023-05-05T05:24:26.452Z,16.88
2023-05-05T05:26:53.610Z,16.85
2023-05-05T05:29:20.432Z,16.75
2023-05-05T05:31:48.278Z,16.71
2023-05-05T05:34:14.761Z,16.74
2023-05-05T05:36:41.902Z,16.77
2023-05-05T05:39:08.532Z,16.79
2023-05-05T05:41:35.088Z,16.75
2023-05-05T05:44:01.635Z,16.72
2023-05-05T05:46:29.029Z,16.60
2023-05-05T05:48:55.489Z,16.51
2023-05-05T05:51:22.257Z,16.46
2023-05-05T05:53:49.265Z,16.44
2023-05-05T05:56:15.864Z,16.43
2023-05-05T05:58:42.734Z,16.46
2023-05-05T06:01:09.813Z,16.59
2023-05-05T06:03:36.430Z,16.79
2023-05-05T06:06:03.153Z,16.99
2023-05-05T06:08:29.646Z,17.20
2023-05-05T06:10:57.132Z,17.42
2023-05-05T06:13:23.627Z,17.60
2023-05-05T06:15:52.231Z,17.72
2023-05-05T06:18:19.992Z,17.86
2023-05-05T06:20:49.758Z,17.99
2023-05-05T06:23:17.064Z,18.13
2023-05-05T06:25:48.726Z,18.24
2023-05-05T06:28:15.291Z,18.31
2023-05-05T06:30:41.740Z,18.33
2023-05-05T06:33:08.128Z,18.35
2023-05-05T06:35:34.628Z,18.40
2023-05-05T06:38:01.082Z,18.45
2023-05-05T06:40:27.543Z,18.48
2023-05-05T06:42:54.012Z,18.51
2023-05-05T06:45:25.853Z,18.58
2023-05-05T06:47:52.535Z,18.61
2023-05-05T06:50:19.712Z,18.56
2023-05-05T06:52:46.109Z,18.54
2023-05-05T06:55:12.634Z,18.52
2023-05-05T06:57:39.119Z,18.52
2023-05-05T07:00:06.225Z,18.54
2023-05-05T07:02:33.669Z,18.44
2023-05-05T07:05:00.236Z,18.34
2023-05-05T07:07:26.888Z,18.33
2023-05-05T07:09:53.371Z,18.40
2023-05-05T07:12:19.808Z,18.48
2023-05-05T07:14:46.786Z,18.55
2023-05-05T07:17:13.246Z,18.62
2023-05-05T07:19:39.629Z,18.72
2023-05-05T07:22:06.280Z,18.79
2023-05-05T07:24:32.797Z,18.84
2023-05-05T07:26:59.337Z,18.87
2023-05-05T07:29:25.769Z,18.92
2023-05-05T07:31:52.287Z,18.91
2023-05-05T07:34:18.750Z,18.82
2023-05-05T07:36:45.228Z,18.79
2023-05-05T07:39:14.793Z,18.84
2023-05-05T07:41:42.424Z,18.80
2023-05-05T07:44:08.928Z,18.81
2023-05-05T07:46:35.471Z,18.81
2023-05-05T07:49:01.989Z,18.82
2023-05-05T07:51:28.436Z,18.89
2023-05-05T07:53:55.660Z,18.94
2023-05-05T07:56:22.029Z,18.95
2023-05-05T07:58:48.423Z,18.93
2023-05-05T08:01:14.801Z,18.84
2023-05-05T08:03:41.599Z,18.82
2023-05-05T08:06:12.018Z,18.76
2023-05-05T08:08:38.435Z,18.78
2023-05-05T08:11:06.433Z,18.77
2023-05-05T08:13:33.036Z,18.80
2023-05-05T08:15:59.550Z,18.83
2023-05-05T08:18:26.526Z,18.84
2023-05-05T08:20:54.475Z,18.86
2023-05-05T08:23:21.524Z,18.85
2023-05-05T08:25:47.943Z,18.83
2023-05-05T08:28:14.352Z,18.77
2023-05-05T08:30:41.054Z,18.75
2023-05-05T08:33:07.489Z,18.75
2023-05-05T08:35:33.987Z,18.75
2023-05-05T08:38:00.397Z,18.80
2023-05-05T08:40:34.053Z,18.84
2023-05-05T08:43:01.373Z,18.94
2023-05-05T08:45:31.877Z,19.03
2023-05-05T08:48:01.593Z,18.98
2023-05-05T08:50:29.487Z,18.98
2023-05-05T08:53:12.792Z,18.95
2023-05-05T08:55:50.556Z,19.08
2023-05-05T08:58:18.651Z,19.14
2023-05-05T09:00:46.638Z,19.20
2023-05-05T09:03:13.386Z,19.20
2023-05-05T09:05:42.770Z,19.20
2023-05-05T09:08:10.984Z,19.24
2023-05-05T09:10:41.430Z,19.26
2023-05-05T09:13:07.981Z,19.34
2023-05-05T09:15:34.742Z,19.35
2023-05-05T09:18:01.756Z,19.29
2023-05-05T09:20:35.951Z,19.22
2023-05-05T09:23:09.563Z,19.13
2023-05-05T09:25:36.197Z,19.04
2023-05-05T09:28:10.379Z,19.01
2023-05-05T09:30:37.367Z,19.03
2023-05-05T09:33:04.351Z,19.02
2023-05-05T09:35:51.305Z,18.99
2023-05-05T09:38:19.003Z,18.98
2023-05-05T09:40:50.200Z,18.95
2023-05-05T09:43:17.936Z,18.90
2023-05-05T09:45:44.809Z,18.87
2023-05-05T09:48:28.559Z,18.87
2023-05-05T09:50:56.120Z,18.86
2023-05-05T09:53:23.977Z,18.82
2023-05-05T09:55:54.595Z,18.78
2023-05-05T09:58:23.895Z,18.73
2023-05-05T10:00:50.953Z,18.67
2023-05-05T10:03:17.589Z,18.64
2023-05-05T10:05:55.699Z,18.61
2023-05-05T10:08:24.922Z,18.52
2023-05-05T10:11:00.472Z,18.49
2023-05-05T10:13:27.888Z,18.44
2023-05-05T10:15:56.153Z,18.38
2023-05-05T10:18:28.088Z,18.37
2023-05-05T10:20:58.865Z,18.36
2023-05-05T10:23:54.384Z,18.28
2023-05-05T10:26:23.000Z,18.27
2023-05-05T10:28:56.624Z,18.25
2023-05-05T10:31:26.965Z,18.22
2023-05-05T10:34:00.423Z,18.21
2023-05-05T10:36:27.804Z,18.22
2023-05-05T10:38:58.870Z,18.27
2023-05-05T10:41:28.643Z,18.27
2023-05-05T10:43:57.147Z,18.23
2023-05-05T10:46:28.107Z,18.22
2023-05-05T10:49:13.098Z,18.22
2023-05-05T10:51:41.034Z,18.22
2023-05-05T10:54:17.073Z,18.25
2023-05-05T10:56:43.776Z,18.27
2023-05-05T10:59:38.340Z,18.32
2023-05-05T11:02:28.442Z,18.35
2023-05-05T11:05:17.384Z,18.32
2023-05-05T11:07:46.008Z,18.23
2023-05-05T11:10:14.272Z,18.25
2023-05-05T11:12:57.741Z,18.25
2023-05-05T11:15:27.340Z,18.21
2023-05-05T11:17:55.647Z,18.15
2023-05-05T11:20:39.334Z,18.03
2023-05-05T11:23:05.683Z,17.95
2023-05-05T11:25:35.326Z,17.96
2023-05-05T11:28:17.214Z,17.97
2023-05-05T11:30:56.704Z,18.00
2023-05-05T11:33:38.088Z,18.00
2023-05-05T11:36:07.278Z,18.00
2023-05-05T11:39:01.268Z,17.98
2023-05-05T11:41:44.951Z,17.97
2023-05-05T11:44:13.529Z,17.92
2023-05-05T11:46:41.568Z,17.93
2023-05-05T11:49:09.166Z,17.90
2023-05-05T11:51:35.683Z,17.88
2023-05-05T11:54:02.147Z,17.86
2023-05-05T11:56:28.533Z,17.84
2023-05-05T11:59:11.053Z,17.82
2023-05-05T12:01:41.546Z,17.78
2023-05-05T12:04:12.039Z,17.76
2023-05-05T12:06:39.414Z,17.69
2023-05-05T12:09:20.516Z,17.64
2023-05-05T12:11:53.911Z,17.60
2023-05-05T12:14:20.893Z,17.55
2023-05-05T12:16:57.186Z,17.54
2023-05-05T12:19:24.185Z,17.51
2023-05-05T12:21:50.695Z,17.48
2023-05-05T12:24:17.099Z,17.41
2023-05-05T12:26:43.611Z,17.38
2023-05-05T12:29:10.060Z,17.37
2023-05-05T12:31:42.634Z,17.34
2023-05-05T12:34:10.393Z,17.32
2023-05-05T12:36:37.492Z,17.29
2023-05-05T12:39:08.118Z,17.26
2023-05-05T12:41:34.939Z,17.26
2023-05-05T12:44:02.995Z,17.27
2023-05-05T12:46:30.933Z,17.23
2023-05-05T12:49:04.823Z,17.18
2023-05-05T12:51:32.402Z,17.10
2023-05-05T12:54:04.862Z,17.02
2023-05-05T12:56:38.673Z,16.99
2023-05-05T12:59:07.631Z,16.96
2023-05-05T13:01:57.328Z,16.91
2023-05-05T13:04:28.091Z,16.80
2023-05-05T13:07:12.180Z,16.74
2023-05-05T13:09:38.884Z,16.70
2023-05-05T13:12:07.057Z,16.68
2023-05-05T13:14:34.733Z,16.61
2023-05-05T13:17:01.180Z,16.61
2023-05-05T13:19:27.775Z,16.60
2023-05-05T13:21:55.380Z,16.56
2023-05-05T13:24:31.631Z,16.58
2023-05-05T13:27:05.440Z,16.58
2023-05-05T13:29:32.410Z,16.54
2023-05-05T13:31:58.925Z,16.49
2023-05-05T13:34:25.609Z,16.50
2023-05-05T13:36:52.207Z,16.51
2023-05-05T13:39:18.657Z,16.55
2023-05-05T13:41:45.370Z,16.59
2023-05-05T13:44:12.226Z,16.61
2023-05-05T13:46:38.637Z,16.64
2023-05-05T13:49:05.143Z,16.60
2023-05-05T13:51:31.587Z,16.52
2023-05-05T13:53:58.010Z,16.53
2023-05-05T13:56:26.245Z,16.53
2023-05-05T13:58:52.787Z,16.53
2023-05-05T14:01:19.313Z,16.48
2023-05-05T14:03:45.827Z,16.37
2023-05-05T14:06:12.331Z,16.22
2023-05-05T14:08:38.718Z,16.13
2023-05-05T14:11:05.213Z,16.14
2023-05-05T14:13:31.632Z,16.18
2023-05-05T14:15:58.384Z,16.18
2023-05-05T14:18:25.530Z,16.22
2023-05-05T14:20:51.952Z,16.24
2023-05-05T14:23:19.360Z,16.27
2023-05-05T14:25:45.882Z,16.25
2023-05-05T14:28:12.287Z,16.28
2023-05-05T14:30:39.462Z,16.34
2023-05-05T14:33:05.935Z,16.39
2023-05-05T14:35:32.429Z,16.42
2023-05-05T14:37:58.869Z,16.47
2023-05-05T14:40:25.332Z,16.46
2023-05-05T14:42:51.767Z,16.46
2023-05-05T14:45:18.179Z,16.48
2023-05-05T14:47:44.807Z,16.49
2023-05-05T14:50:11.272Z,16.53
2023-05-05T14:52:39.236Z,16.63
2023-05-05T14:55:07.057Z,16.77
2023-05-05T14:57:33.702Z,16.90
2023-05-05T15:00:00.142Z,16.91
2023-05-05T15:02:26.793Z,16.88
2023-05-05T15:04:53.319Z,16.85
2023-05-05T15:07:20.475Z,16.80
2023-05-05T15:09:46.910Z,16.80
2023-05-05T15:12:13.354Z,16.86
2023-05-05T15:14:39.895Z,16.91
2023-05-05T15:17:06.515Z,16.94
2023-05-05T15:19:32.975Z,16.99
2023-05-05T15:21:59.437Z,17.08
2023-05-05T15:24:26.205Z,17.13
2023-05-05T15:26:52.636Z,17.15
2023-05-05T15:29:19.140Z,17.19
2023-05-05T15:31:45.655Z,17.17
2023-05-05T15:34:12.141Z,17.18
2023-05-05T15:36:38.583Z,17.21
2023-05-05T15:39:05.081Z,17.22
2023-05-05T15:41:34.165Z,17.20
2023-05-05T15:44:02.068Z,17.15
2023-05-05T15:46:33.213Z,17.14
2023-05-05T15:48:59.918Z,17.19
2023-05-05T15:51:26.420Z,17.12
2023-05-05T15:53:53.321Z,17.07
2023-05-05T15:56:19.845Z,17.09
2023-05-05T15:58:46.395Z,17.04
2023-05-05T16:01:12.940Z,17.05
2023-05-05T16:03:39.358Z,17.06
2023-05-05T16:06:06.120Z,17.04
2023-05-05T16:08:32.614Z,17.01
2023-05-05T16:10:59.059Z,17.01
2023-05-05T16:13:25.552Z,16.99
2023-05-05T16:15:52.047Z,16.98
2023-05-05T16:18:18.492Z,16.95
2023-05-05T16:20:45.159Z,16.98
2023-05-05T16:23:11.665Z,16.96
2023-05-05T16:25:38.122Z,17.00
2023-05-05T16:28:04.737Z,17.02
2023-05-05T16:30:31.153Z,17.02
2023-05-05T16:32:57.632Z,17.02
2023-05-05T16:35:24.014Z,17.05
2023-05-05T16:37:50.511Z,17.05
2023-05-05T16:40:16.917Z,17.04
2023-05-05T16:42:44.572Z,17.06
2023-05-05T16:45:11.542Z,17.02
2023-05-05T16:47:38.341Z,16.97
2023-05-05T16:50:05.438Z,16.98
2023-05-05T16:52:31.802Z,16.96
2023-05-05T16:54:58.222Z,16.97
2023-05-05T16:57:24.706Z,16.92
2023-05-05T16:59:51.177Z,16.87
2023-05-05T17:02:17.565Z,16.87
2023-05-05T17:04:44.026Z,16.88
2023-05-05T17:07:10.454Z,16.91
2023-05-05T17:09:37.359Z,16.94
2023-05-05T17:12:04.298Z,16.94
2023-05-05T17:14:31.029Z,16.95
2023-05-05T17:16:57.840Z,16.98
2023-05-05T17:19:24.332Z,17.01
2023-05-05T17:21:51.359Z,16.98
2023-05-05T17:24:17.802Z,16.91
2023-05-05T17:26:44.195Z,16.89
2023-05-05T17:29:12.944Z,16.89
2023-05-05T17:31:39.618Z,16.90
2023-05-05T17:34:05.989Z,16.90
2023-05-05T17:36:33.348Z,16.91
2023-05-05T17:38:59.806Z,16.92
2023-05-05T17:41:26.329Z,16.93
2023-05-05T17:43:52.968Z,16.92
2023-05-05T17:46:19.551Z,16.88
2023-05-05T17:48:46.134Z,16.85
2023-05-05T17:51:12.531Z,16.86
2023-05-05T17:53:39.341Z,16.86
2023-05-05T17:56:08.575Z,16.87
2023-05-05T17:58:35.364Z,16.87
2023-05-05T18:01:01.820Z,16.86
2023-05-05T18:03:28.535Z,16.85
2023-05-05T18:05:55.253Z,16.83
2023-05-05T18:08:22.240Z,16.81
2023-05-05T18:10:48.728Z,16.82
2023-05-05T18:13:15.261Z,16.81
2023-05-05T18:15:42.140Z,16.78
2023-05-05T18:18:08.603Z,16.74
2023-05-05T18:20:35.112Z,16.80
2023-05-05T18:23:01.810Z,16.78
2023-05-05T18:25:28.224Z,16.78
2023-05-05T18:27:54.608Z,16.76
2023-05-05T18:30:21.009Z,16.77
2023-05-05T18:32:48.635Z,16.76
2023-05-05T18:35:15.396Z,16.74
2023-05-05T18:37:42.271Z,16.75
2023-05-05T18:40:09.945Z,16.74
2023-05-05T18:42:36.304Z,16.72
2023-05-05T18:45:02.799Z,16.69
2023-05-05T18:47:29.215Z,16.68
2023-05-05T18:49:55.917Z,16.65
2023-05-05T18:52:22.815Z,16.60
2023-05-05T18:54:49.243Z,16.54
2023-05-05T18:57:15.691Z,16.50
2023-05-05T18:59:42.071Z,16.48
2023-05-05T19:02:08.508Z,16.47
2023-05-05T19:04:37.773Z,16.47
2023-05-05T19:07:04.819Z,16.44
2023-05-05T19:09:31.256Z,16.42
2023-05-05T19:11:57.633Z,16.41
2023-05-05T19:14:24.257Z,16.37
2023-05-05T19:16:50.943Z,16.32
2023-05-05T19:19:17.420Z,16.29
2023-05-05T19:21:43.927Z,16.26
2023-05-05T19:24:10.371Z,16.25
2023-05-05T19:26:36.922Z,16.24
2023-05-05T19:29:03.328Z,16.20
2023-05-05T19:31:31.078Z,16.17
2023-05-05T19:34:00.793Z,16.14
2023-05-05T19:36:27.806Z,16.12
2023-05-05T19:38:55.410Z,16.10
2023-05-05T19:41:21.824Z,16.08
2023-05-05T19:43:49.748Z,16.05
2023-05-05T19:46:17.047Z,16.03
2023-05-05T19:48:43.998Z,15.99
2023-05-05T19:51:10.418Z,15.97
2023-05-05T19:53:36.855Z,15.96
2023-05-05T19:56:04.756Z,15.95
2023-05-05T19:58:33.996Z,15.91
2023-05-05T20:01:00.450Z,15.86
2023-05-05T20:03:27.009Z,15.83
2023-05-05T20:05:53.468Z,15.82
2023-05-05T20:08:19.912Z,15.81
2023-05-05T20:10:46.326Z,15.78
2023-05-05T20:13:12.836Z,15.77
2023-05-05T20:15:39.414Z,15.76
2023-05-05T20:18:05.953Z,15.73
2023-05-05T20:20:32.478Z,15.70
2023-05-05T20:22:59.004Z,15.67
2023-05-05T20:25:25.526Z,15.63
2023-05-05T20:27:51.925Z,15.61
2023-05-05T20:30:18.342Z,15.58
2023-05-05T20:32:44.811Z,15.57
2023-05-05T20:35:12.652Z,15.57
2023-05-05T20:37:39.186Z,15.54
2023-05-05T20:40:06.525Z,15.50
2023-05-05T20:42:33.167Z,15.49
2023-05-05T20:45:00.892Z,15.46
2023-05-05T20:47:27.439Z,15.42
2023-05-05T20:49:54.161Z,15.40
2023-05-05T20:52:20.545Z,15.36
2023-05-05T20:54:47.008Z,15.33
2023-05-05T20:57:13.600Z,15.30
2023-05-05T20:59:40.047Z,15.30
2023-05-05T21:02:06.477Z,15.30
2023-05-05T21:04:33.008Z,15.28
2023-05-05T21:06:59.440Z,15.28
2023-05-05T21:09:25.990Z,15.26
2023-05-05T21:11:52.396Z,15.28
2023-05-05T21:14:18.823Z,15.28
2023-05-05T21:16:45.479Z,15.27
2023-05-05T21:19:11.984Z,15.25
2023-05-05T21:21:38.405Z,15.24
2023-05-05T21:24:07.658Z,15.21
2023-05-05T21:26:34.384Z,15.17
2023-05-05T21:29:00.820Z,15.14
2023-05-05T21:31:27.214Z,15.13
2023-05-05T21:33:54.149Z,15.14
2023-05-05T21:36:21.185Z,15.13
2023-05-05T21:38:47.712Z,15.12
2023-05-05T21:41:14.147Z,15.09
2023-05-05T21:43:41.047Z,15.07
2023-05-05T21:46:07.556Z,15.06
2023-05-05T21:48:34.014Z,15.06
2023-05-05T21:51:00.993Z,15.04
2023-05-05T21:53:27.412Z,15.01
2023-05-05T21:55:53.919Z,14.99
2023-05-05T21:58:20.406Z,14.96
2023-05-05T22:00:49.641Z,14.91
2023-05-05T22:03:16.297Z,14.89
2023-05-05T22:05:43.032Z,14.85
2023-05-05T22:08:09.463Z,14.82
2023-05-05T22:10:35.901Z,14.83
2023-05-05T22:13:02.342Z,14.81
2023-05-05T22:15:35.601Z,14.78
2023-05-05T22:18:06.516Z,14.74
2023-05-05T22:20:33.037Z,14.74
2023-05-05T22:22:59.437Z,14.72
2023-05-05T22:25:26.350Z,14.71
2023-05-05T22:27:52.816Z,14.66
2023-05-05T22:30:19.306Z,14.65
2023-05-05T22:32:46.306Z,14.65
2023-05-05T22:35:13.070Z,14.65
2023-05-05T22:37:40.021Z,14.66
2023-05-05T22:40:09.524Z,14.63
2023-05-05T22:42:36.251Z,14.62
2023-05-05T22:45:02.632Z,14.62
2023-05-05T22:47:29.225Z,14.62
2023-05-05T22:49:55.663Z,14.59
2023-05-05T22:52:22.064Z,14.57
2023-05-05T22:54:48.511Z,14.56
2023-05-05T22:57:14.930Z,14.55
2023-05-05T22:59:41.286Z,14.56
2023-05-05T23:02:07.830Z,14.56
2023-05-05T23:04:34.322Z,14.57
2023-05-05T23:07:01.095Z,14.56
2023-05-05T23:09:27.577Z,14.56
2023-05-05T23:11:54.045Z,14.57
2023-05-05T23:14:20.628Z,14.58
2023-05-05T23:16:47.086Z,14.58
2023-05-05T23:19:13.864Z,14.57
2023-05-05T23:21:51.960Z,14.58
2023-05-05T23:24:19.481Z,14.58
2023-05-05T23:26:45.886Z,14.58
2023-05-05T23:29:12.293Z,14.55
2023-05-05T23:31:38.690Z,14.52
2023-05-05T23:34:05.077Z,14.50
2023-05-05T23:36:31.494Z,14.48
2023-05-05T23:38:57.912Z,14.47
2023-05-05T23:41:24.305Z,14.48
2023-05-05T23:43:50.914Z,14.48
2023-05-05T23:46:17.305Z,14.47
2023-05-05T23:48:43.768Z,14.47
2023-05-05T23:51:10.194Z,14.40
2023-05-05T23:53:36.565Z,14.39
2023-05-05T23:56:03.214Z,14.38
2023-05-05T23:58:29.642Z,14.38
